Low Moor, IA (52757)

4:17 AM CDT on July 29, 2016 (GMT -0500)
IADOT | | Change Station

Elev 790 ft 41.83 °N, 90.57 °W | Updated 24 minutes ago

Overcast
Overcast
69.0 °F
Feels Like 69.0 °F
N
4.0
Wind Variable Wind from NNE
Gusts 6.0 mph

Today
High -- | Low -- °F
--% Chance of Precip.
Yesterday
High -- | Low -- °F
Precip. -- in
Pressure 29.96 in
Visibility 7.0 miles
Clouds Overcast 800 ft
Dew Point 69.0 °F
Humidity 99%
Rainfall in
Snow Depth Not available.
5:53 AM 8:22 PM
Waning Crescent, 23% visible
METAR KCWI 290856Z AUTO 03004KT 7SM OVC008 21/20 A2992 RMK AO2 SLP146 6//// T02110200 58003 PNO $
Pressure 29.96 in
Visibility 7.0 miles
Clouds Overcast 800 ft
Dew Point 69.0 °F
Humidity 99%
Rainfall in
Snow Depth Not available.
5:53 AM 8:22 PM
Waning Crescent, 23% visible
METAR KCWI 290856Z AUTO 03004KT 7SM OVC008 21/20 A2992 RMK AO2 SLP146 6//// T02110200 58003 PNO $

10-Day Weather Forecast

Almanac

Astronomy

Jul. 29, 2016 Rise Set
Actual Time
Civil Twilight
Nautical Twilight
Astronomical Twilight
Moon
Length of Visible Light
Length of Day
Tomorrow will be .
, % of the Moon is Illuminated

Today's Extremes

State Highs State Lows

Community

WunderPhotos

Upload Photos

1,928,300 photos uploaded!

WunderBlog® & News

Nearby

Air Quality

  Air Quality AQ Index Pollutant
Not available.

Snow Depth

Station Depth Elevation

Earthquake Activity

City Distance Mag. Time & Date
Minimum magnitude displayed is 2.5.

Coastal Water Temperatures

Place Temperature

Stations

Nearby Weather Stations

Station Location Temp. Windchill Dew Point Humidity Wind Precip. Elev Updated Type
                   

Watches & Warnings

There are currently no watches in effect.